Beverly Hills, CA (90210)

10:30 PM PDT on August 28, 2016 (GMT -0700)
| | Change Station

Elev -9999 ft 0.00 °N, 0.00 °E | Updated

Clear
Clear
65 °F
Feels Like 65 °F
N
3
Wind Variable Wind from ESE
Gusts mph

Today
High -- | Low -- °F
--% Chance of Precip.
Yesterday
High -- | Low -- °F
Precip. -- in
Pressure 29.96 in
Visibility 10.0 miles
Clouds Clear
Dew Point 60 °F
Humidity 83%
Rainfall --
Snow Depth Not available.
6:24 AM 7:23 PM
Waning Crescent, 11% visible
METAR KSMO 290451Z AUTO 10004KT 10SM CLR 20/16 A2997 RMK AO2 SLP146 T02000161 TSNO
Pressure 29.96 in
Visibility 10.0 miles
Clouds Clear
Dew Point 60 °F
Humidity 83%
Rainfall --
Snow Depth Not available.
6:24 AM 7:23 PM
Waning Crescent, 11% visible
METAR KSMO 290451Z AUTO 10004KT 10SM CLR 20/16 A2997 RMK AO2 SLP146 T02000161 TSNO

10-Day Weather Forecast

Almanac

Astronomy

Aug. 28, 2016 Rise Set
Actual Time
Civil Twilight
Nautical Twilight
Astronomical Twilight
Moon
Length of Visible Light
Length of Day
Tomorrow will be .
, % of the Moon is Illuminated

Today's Extremes

State Highs State Lows

Community

WunderPhotos

Upload Photos

1,935,800 photos uploaded!

WunderBlog® & News

Nearby

Air Quality

  Air Quality AQ Index Pollutant
Not available.

Snow Depth

Station Depth Elevation

Earthquake Activity

City Distance Mag. Time & Date
Minimum magnitude displayed is 2.5.

Coastal Water Temperatures

Place Temperature

Stations

Nearby Weather Stations

Station Location Temp. Windchill Dew Point Humidity Wind Precip. Elev Updated Type
                   

Watches & Warnings

There are currently no watches in effect.